createdAt,value
2022-11-10T00:00:53.674Z,93.36
2022-11-10T00:03:28.141Z,93.14
2022-11-10T00:06:01.404Z,93.03
2022-11-10T00:08:32.624Z,93.07
2022-11-10T00:11:07.592Z,93.07
2022-11-10T00:13:58.788Z,93.01
2022-11-10T00:16:48.432Z,92.83
2022-11-10T00:19:19.676Z,92.39
2022-11-10T00:21:50.956Z,92.57
2022-11-10T00:24:22.719Z,92.52
2022-11-10T00:26:54.651Z,92.77
2022-11-10T00:29:25.855Z,92.31
2022-11-10T00:31:57.113Z,92.23
2022-11-10T00:34:28.318Z,92.35
2022-11-10T00:36:59.692Z,92.53
2022-11-10T00:39:30.964Z,92.56
2022-11-10T00:42:02.309Z,92.36
2022-11-10T00:44:33.715Z,91.83
2022-11-10T00:47:04.964Z,92.35
2022-11-10T00:49:36.223Z,92.60
2022-11-10T00:52:07.482Z,92.52
2022-11-10T00:54:38.850Z,92.88
2022-11-10T00:57:10.215Z,92.76
2022-11-10T00:59:41.454Z,92.68
2022-11-10T01:02:12.751Z,93.32
2022-11-10T01:04:43.961Z,93.05
2022-11-10T01:07:15.351Z,93.05
2022-11-10T01:09:46.555Z,92.90
2022-11-10T01:12:17.767Z,92.42
2022-11-10T01:14:49.049Z,92.93
2022-11-10T01:17:20.275Z,92.29
2022-11-10T01:19:51.560Z,92.32
2022-11-10T01:22:22.799Z,92.15
2022-11-10T01:24:54.032Z,92.46
2022-11-10T01:27:25.251Z,92.26
2022-11-10T01:29:56.483Z,92.55
2022-11-10T01:32:27.775Z,93.01
2022-11-10T01:34:59.017Z,92.90
2022-11-10T01:37:30.247Z,92.28
2022-11-10T01:40:01.620Z,92.35
2022-11-10T01:42:45.516Z,92.33
2022-11-10T01:45:22.580Z,92.67
2022-11-10T01:47:56.024Z,92.92
2022-11-10T01:50:29.117Z,92.50
2022-11-10T01:53:02.217Z,93.21
2022-11-10T01:55:35.412Z,92.63
2022-11-10T01:58:06.849Z,92.81
2022-11-10T02:00:38.203Z,93.12
2022-11-10T02:03:21.945Z,92.86
2022-11-10T02:05:53.351Z,93.10
2022-11-10T02:08:25.544Z,92.90
2022-11-10T02:10:56.736Z,92.85
2022-11-10T02:13:27.963Z,92.73
2022-11-10T02:15:59.264Z,92.91
2022-11-10T02:18:30.499Z,92.60
2022-11-10T02:21:03.303Z,93.07
2022-11-10T02:23:37.264Z,93.18
2022-11-10T02:26:08.528Z,93.35
2022-11-10T02:28:39.791Z,93.83
2022-11-10T02:31:11.240Z,93.58
2022-11-10T02:33:42.639Z,93.99
2022-11-10T02:36:13.853Z,93.86
2022-11-10T02:38:45.096Z,94.10
2022-11-10T02:41:16.332Z,94.07
2022-11-10T02:43:47.866Z,94.42
2022-11-10T02:46:19.111Z,93.97
2022-11-10T02:48:50.364Z,94.30
2022-11-10T02:51:21.576Z,94.48
2022-11-10T02:53:52.890Z,93.82
2022-11-10T02:56:24.099Z,93.57
2022-11-10T02:58:55.316Z,93.59
2022-11-10T03:01:26.723Z,93.26
2022-11-10T03:03:58.059Z,93.23
2022-11-10T03:06:29.422Z,93.78
2022-11-10T03:09:00.799Z,94.28
2022-11-10T03:11:32.627Z,94.26
2022-11-10T03:14:03.943Z,95.00
2022-11-10T03:16:35.132Z,94.57
2022-11-10T03:19:06.362Z,95.29
2022-11-10T03:21:37.617Z,94.97
2022-11-10T03:24:08.859Z,95.01
2022-11-10T03:26:40.046Z,95.09
2022-11-10T03:29:11.251Z,95.29
2022-11-10T03:31:42.449Z,95.27
2022-11-10T03:34:13.665Z,95.27
2022-11-10T03:36:44.879Z,95.34
2022-11-10T03:39:16.138Z,95.43
2022-11-10T03:41:47.324Z,95.26
2022-11-10T03:44:18.568Z,95.06
2022-11-10T03:46:51.682Z,95.44
2022-11-10T03:49:23.276Z,95.21
2022-11-10T03:51:54.475Z,95.08
2022-11-10T03:54:25.704Z,95.18
2022-11-10T03:56:56.980Z,94.98
2022-11-10T03:59:28.196Z,94.88
2022-11-10T04:01:59.447Z,95.28
2022-11-10T04:04:49.648Z,95.39
2022-11-10T04:07:39.861Z,95.41
2022-11-10T04:10:11.081Z,95.54
2022-11-10T04:13:01.103Z,95.44
2022-11-10T04:15:44.687Z,95.34
2022-11-10T04:18:21.849Z,95.44
2022-11-10T04:20:57.825Z,95.28
2022-11-10T04:23:34.576Z,95.04
2022-11-10T04:26:28.547Z,95.32
2022-11-10T04:29:02.275Z,95.29
2022-11-10T04:31:35.521Z,95.10
2022-11-10T04:34:07.860Z,94.90
2022-11-10T04:36:40.607Z,95.05
2022-11-10T04:39:12.068Z,94.96
2022-11-10T04:41:43.365Z,94.60
2022-11-10T04:44:14.607Z,94.47
2022-11-10T04:46:45.872Z,94.54
2022-11-10T04:49:17.255Z,94.40
2022-11-10T04:51:48.483Z,94.51
2022-11-10T04:54:19.817Z,94.68
2022-11-10T04:56:51.074Z,93.96
2022-11-10T04:59:22.299Z,94.16
2022-11-10T05:01:53.493Z,94.12
2022-11-10T05:04:24.738Z,94.41
2022-11-10T05:06:56.033Z,94.53
2022-11-10T05:09:27.465Z,94.11
2022-11-10T05:11:58.660Z,93.80
2022-11-10T05:14:29.924Z,94.15
2022-11-10T05:17:01.126Z,93.88
2022-11-10T05:19:32.328Z,93.79
2022-11-10T05:22:03.636Z,94.17
2022-11-10T05:24:34.906Z,94.55
2022-11-10T05:27:06.369Z,94.58
2022-11-10T05:29:37.664Z,94.35
2022-11-10T05:32:08.904Z,94.27
2022-11-10T05:34:40.176Z,94.13
2022-11-10T05:37:11.412Z,94.80
2022-11-10T05:39:42.784Z,94.40
2022-11-10T05:42:14.148Z,94.84
2022-11-10T05:44:45.457Z,94.36
2022-11-10T05:47:16.823Z,94.68
2022-11-10T05:49:48.157Z,94.24
2022-11-10T05:52:19.399Z,94.40
2022-11-10T05:54:50.662Z,94.35
2022-11-10T05:57:22.019Z,94.55
2022-11-10T05:59:53.393Z,94.54
2022-11-10T06:02:24.667Z,94.57
2022-11-10T06:04:55.899Z,94.13
2022-11-10T06:07:27.094Z,93.78
2022-11-10T06:09:58.307Z,94.30
2022-11-10T06:12:30.309Z,93.55
2022-11-10T06:15:02.754Z,93.69
2022-11-10T06:17:34.006Z,94.44
2022-11-10T06:20:05.842Z,94.41
2022-11-10T06:22:37.152Z,94.26
2022-11-10T06:27:57.134Z,95.03
2022-11-10T06:30:28.688Z,94.81
2022-11-10T06:33:03.426Z,95.40
2022-11-10T06:35:38.155Z,95.49
2022-11-10T06:38:11.784Z,95.30
2022-11-10T06:40:43.096Z,95.17
2022-11-10T06:43:14.575Z,95.40
2022-11-10T06:45:51.042Z,95.48
2022-11-10T06:48:22.594Z,95.73
2022-11-10T06:50:53.805Z,96.19
2022-11-10T06:53:27.104Z,95.78
2022-11-10T06:55:58.663Z,96.32
2022-11-10T06:58:30.261Z,96.28
2022-11-10T07:01:01.875Z,96.29
2022-11-10T07:03:33.272Z,96.43
2022-11-10T07:06:04.716Z,96.77
2022-11-10T07:08:36.065Z,96.66
2022-11-10T07:11:08.367Z,96.96
2022-11-10T07:13:39.947Z,96.58
2022-11-10T07:16:11.804Z,96.92
2022-11-10T07:18:43.229Z,96.76
2022-11-10T07:21:14.522Z,96.64
2022-11-10T07:23:46.803Z,96.84
2022-11-10T07:26:18.177Z,96.94
2022-11-10T07:28:49.462Z,96.81
2022-11-10T07:31:20.699Z,97.38
2022-11-10T07:33:54.676Z,97.21
2022-11-10T07:36:28.830Z,97.07
2022-11-10T07:39:00.330Z,97.33
2022-11-10T07:41:31.724Z,97.41
2022-11-10T07:44:03.010Z,97.39
2022-11-10T07:46:34.315Z,97.56
2022-11-10T07:49:05.709Z,97.36
2022-11-10T07:51:37.013Z,97.54
2022-11-10T07:54:08.296Z,97.83
2022-11-10T07:56:39.636Z,97.50
2022-11-10T07:59:10.894Z,97.62
2022-11-10T08:01:42.236Z,97.44
2022-11-10T08:04:13.739Z,97.70
2022-11-10T08:06:45.124Z,97.58
2022-11-10T08:09:16.471Z,97.90
2022-11-10T08:11:47.704Z,97.95
2022-11-10T08:14:18.963Z,97.78
2022-11-10T08:16:50.562Z,97.86
2022-11-10T08:19:21.772Z,97.94
2022-11-10T08:21:53.027Z,97.57
2022-11-10T08:24:24.373Z,97.53
2022-11-10T08:26:55.918Z,97.63
2022-11-10T08:29:27.255Z,97.74
2022-11-10T08:31:58.528Z,97.84
2022-11-10T08:34:29.863Z,97.96
2022-11-10T08:37:01.122Z,97.90
2022-11-10T08:39:39.089Z,97.98
2022-11-10T08:42:11.110Z,98.14
2022-11-10T08:44:42.443Z,98.10
2022-11-10T08:47:13.765Z,98.00
2022-11-10T08:49:45.036Z,97.93
2022-11-10T08:52:16.230Z,97.44
2022-11-10T08:54:47.504Z,97.54
2022-11-10T08:57:18.729Z,97.58
2022-11-10T08:59:50.044Z,97.76
2022-11-10T09:02:21.353Z,97.75
2022-11-10T09:04:53.435Z,97.55
2022-11-10T09:07:24.687Z,97.78
2022-11-10T09:10:06.827Z,97.79
2022-11-10T09:12:39.169Z,98.03
2022-11-10T09:15:10.976Z,98.20
2022-11-10T09:17:42.257Z,98.27
2022-11-10T09:20:13.710Z,98.22
2022-11-10T09:22:45.056Z,98.76
2022-11-10T09:25:16.413Z,98.90
2022-11-10T09:27:47.761Z,98.92
2022-11-10T09:30:19.002Z,98.33
2022-11-10T09:32:54.362Z,98.41
2022-11-10T09:35:26.114Z,98.19
2022-11-10T09:37:57.316Z,98.05
2022-11-10T09:40:37.445Z,98.45
2022-11-10T09:43:14.303Z,98.26
2022-11-10T09:45:46.984Z,98.01
2022-11-10T09:48:26.017Z,97.95
2022-11-10T09:50:59.430Z,98.39
2022-11-10T09:53:47.736Z,98.02
2022-11-10T09:56:28.845Z,98.12
2022-11-10T09:59:00.479Z,97.72
2022-11-10T10:01:34.991Z,97.69
2022-11-10T10:04:06.301Z,97.82
2022-11-10T10:07:05.321Z,98.30
2022-11-10T10:09:42.264Z,98.24
2022-11-10T10:12:16.313Z,97.70
2022-11-10T10:14:57.481Z,97.84
2022-11-10T10:17:38.321Z,98.07
2022-11-10T10:20:18.555Z,98.14
2022-11-10T10:23:00.403Z,98.65
2022-11-10T10:25:32.245Z,98.67
2022-11-10T10:28:12.213Z,98.33
2022-11-10T10:30:44.049Z,98.43
2022-11-10T10:33:15.319Z,98.19
2022-11-10T10:35:49.149Z,98.09
2022-11-10T10:38:31.197Z,97.82
2022-11-10T10:41:10.339Z,97.68
2022-11-10T10:43:46.071Z,97.78
2022-11-10T10:46:19.299Z,98.28
2022-11-10T10:49:29.214Z,98.18
2022-11-10T10:52:02.965Z,98.34
2022-11-10T10:54:35.632Z,98.14
2022-11-10T10:57:25.650Z,97.61
2022-11-10T11:00:12.395Z,97.44
2022-11-10T11:02:43.855Z,97.26
2022-11-10T11:05:17.275Z,97.28
2022-11-10T11:07:56.041Z,96.89
2022-11-10T11:10:29.050Z,97.22
2022-11-10T11:13:20.757Z,98.09
2022-11-10T11:15:59.257Z,98.18
2022-11-10T11:18:31.992Z,98.07
2022-11-10T11:21:06.348Z,97.55
2022-11-10T11:24:16.310Z,97.08
2022-11-10T11:26:59.707Z,96.93
2022-11-10T11:29:37.127Z,97.14
2022-11-10T11:32:08.448Z,97.10
2022-11-10T11:34:42.548Z,97.07
2022-11-10T11:37:23.097Z,97.42
2022-11-10T11:40:05.729Z,97.67
2022-11-10T11:42:46.162Z,97.22
2022-11-10T11:45:20.357Z,96.92
2022-11-10T11:48:00.991Z,96.05
2022-11-10T11:50:36.839Z,96.37
2022-11-10T11:53:14.240Z,96.91
2022-11-10T11:56:04.376Z,96.88
2022-11-10T11:58:44.895Z,96.68
2022-11-10T12:01:39.286Z,96.67
2022-11-10T12:04:10.497Z,96.44
2022-11-10T12:07:04.933Z,96.46
2022-11-10T12:09:45.576Z,96.94
2022-11-10T12:12:26.019Z,97.33
2022-11-10T12:15:17.495Z,97.10
2022-11-10T12:17:54.830Z,97.28
2022-11-10T12:20:26.203Z,97.20
2022-11-10T12:23:04.920Z,96.92
2022-11-10T12:25:55.035Z,96.98
2022-11-10T12:28:38.711Z,96.58
2022-11-10T12:31:12.203Z,96.75
2022-11-10T12:34:12.989Z,96.74
2022-11-10T12:36:44.849Z,96.83
2022-11-10T12:39:21.841Z,96.60
2022-11-10T12:41:55.876Z,96.51
2022-11-10T12:44:39.575Z,96.49
2022-11-10T12:47:15.714Z,96.54
2022-11-10T12:50:07.239Z,96.48
2022-11-10T12:52:47.498Z,96.65
2022-11-10T12:55:20.940Z,96.65
2022-11-10T12:57:52.160Z,96.36
2022-11-10T13:00:28.151Z,96.37
2022-11-10T13:03:00.056Z,96.42
2022-11-10T13:05:34.079Z,96.41
2022-11-10T13:08:08.075Z,96.77
2022-11-10T13:10:47.897Z,96.48
2022-11-10T13:13:19.536Z,96.76
2022-11-10T13:15:59.911Z,96.59
2022-11-10T13:18:31.282Z,96.55
2022-11-10T13:21:02.556Z,96.48
2022-11-10T13:23:56.605Z,96.75
2022-11-10T13:26:39.918Z,97.06
2022-11-10T13:29:32.114Z,96.78
2022-11-10T13:32:15.578Z,96.69
2022-11-10T13:34:47.546Z,96.74
2022-11-10T13:37:34.002Z,96.56
2022-11-10T13:40:17.443Z,96.92
2022-11-10T13:42:58.012Z,96.77
2022-11-10T13:45:39.562Z,96.52
2022-11-10T13:48:10.810Z,96.49
2022-11-10T13:50:58.276Z,97.14
2022-11-10T13:53:48.119Z,96.94
2022-11-10T13:56:31.575Z,96.52
2022-11-10T13:59:16.265Z,96.72
2022-11-10T14:01:47.547Z,96.43
2022-11-10T14:04:40.278Z,96.81
2022-11-10T14:07:19.127Z,96.77
2022-11-10T14:09:51.819Z,96.59
2022-11-10T14:12:41.182Z,96.51
2022-11-10T14:15:30.862Z,96.67
2022-11-10T14:18:03.055Z,96.26
2022-11-10T14:20:40.364Z,96.57
2022-11-10T14:23:19.657Z,96.48
2022-11-10T14:26:03.415Z,96.68
2022-11-10T14:28:37.415Z,96.64
2022-11-10T14:31:16.111Z,96.29
2022-11-10T14:33:57.364Z,96.37
2022-11-10T14:36:28.596Z,96.35
2022-11-10T14:39:00.796Z,96.45
2022-11-10T14:41:32.419Z,96.60
2022-11-10T14:44:05.553Z,95.98
2022-11-10T14:46:38.427Z,96.51
2022-11-10T14:49:10.206Z,96.10
2022-11-10T14:51:41.437Z,96.03
2022-11-10T14:54:16.899Z,96.36
2022-11-10T14:56:48.344Z,96.25
2022-11-10T14:59:20.375Z,96.16
2022-11-10T15:01:56.089Z,96.51
2022-11-10T15:04:30.031Z,96.45
2022-11-10T15:07:01.346Z,96.17
2022-11-10T15:09:32.912Z,96.23
2022-11-10T15:12:25.854Z,96.36
2022-11-10T15:14:59.240Z,96.23
2022-11-10T15:17:43.471Z,96.21
2022-11-10T15:20:28.369Z,96.72
2022-11-10T15:23:00.555Z,96.43
2022-11-10T15:25:33.522Z,96.34
2022-11-10T15:28:06.585Z,96.31
2022-11-10T15:30:38.300Z,96.34
2022-11-10T15:33:10.235Z,96.18
2022-11-10T15:35:43.671Z,96.38
2022-11-10T15:38:29.008Z,96.37
2022-11-10T15:41:05.308Z,96.62
2022-11-10T15:43:36.536Z,96.81
2022-11-10T15:46:15.010Z,96.85
2022-11-10T15:48:51.210Z,96.67
2022-11-10T15:51:26.207Z,96.56
2022-11-10T15:53:57.737Z,96.63
2022-11-10T15:56:28.951Z,96.81
2022-11-10T15:59:02.352Z,96.87
2022-11-10T16:01:34.051Z,96.87
2022-11-10T16:04:08.527Z,96.82
2022-11-10T16:06:40.008Z,96.49
2022-11-10T16:09:12.620Z,96.48
2022-11-10T16:11:44.581Z,96.60
2022-11-10T16:14:17.499Z,96.49
2022-11-10T16:16:48.722Z,96.57
2022-11-10T16:19:20.007Z,96.82
2022-11-10T16:21:51.304Z,96.49
2022-11-10T16:24:22.525Z,96.57
2022-11-10T16:26:53.730Z,96.36
2022-11-10T16:29:25.112Z,96.82
2022-11-10T16:31:56.322Z,96.60
2022-11-10T16:34:27.676Z,96.64
2022-11-10T16:36:59.027Z,96.93
2022-11-10T16:39:30.329Z,96.69
2022-11-10T16:42:01.564Z,96.74
2022-11-10T16:44:32.763Z,96.45
2022-11-10T16:47:03.966Z,96.77
2022-11-10T16:49:35.552Z,96.36
2022-11-10T16:52:14.615Z,96.70
2022-11-10T16:54:45.868Z,96.72
2022-11-10T16:57:17.348Z,96.50
2022-11-10T16:59:48.626Z,96.79
2022-11-10T17:02:26.261Z,96.57
2022-11-10T17:04:57.488Z,96.32
2022-11-10T17:07:29.006Z,96.37
2022-11-10T17:10:01.252Z,96.75
2022-11-10T17:12:32.709Z,96.86
2022-11-10T17:15:04.136Z,96.71
2022-11-10T17:17:36.196Z,96.33
2022-11-10T17:20:07.662Z,96.68
2022-11-10T17:22:38.916Z,96.59
2022-11-10T17:25:14.427Z,96.52
2022-11-10T17:27:45.754Z,96.56
2022-11-10T17:30:17.149Z,96.12
2022-11-10T17:33:05.688Z,96.41
2022-11-10T17:35:42.644Z,96.32
2022-11-10T17:38:24.662Z,96.39
2022-11-10T17:40:55.952Z,96.44
2022-11-10T17:43:27.211Z,96.34
2022-11-10T17:45:58.566Z,96.08
2022-11-10T17:48:29.813Z,96.25
2022-11-10T17:51:01.349Z,96.29
2022-11-10T17:53:33.138Z,95.80
2022-11-10T17:56:04.508Z,96.17
2022-11-10T17:58:35.747Z,96.23
2022-11-10T18:01:14.429Z,96.14
2022-11-10T18:03:46.063Z,96.07
2022-11-10T18:06:18.717Z,95.93
2022-11-10T18:08:49.971Z,95.72
2022-11-10T18:11:21.277Z,95.84
2022-11-10T18:13:52.479Z,96.10
2022-11-10T18:16:23.809Z,95.93
2022-11-10T18:18:55.102Z,95.76
2022-11-10T18:21:26.399Z,95.75
2022-11-10T18:23:57.613Z,95.81
2022-11-10T18:26:28.886Z,95.90
2022-11-10T18:29:00.129Z,95.80
2022-11-10T18:31:31.363Z,95.67
2022-11-10T18:34:02.642Z,95.92
2022-11-10T18:36:33.969Z,95.96
2022-11-10T18:39:05.176Z,95.79
2022-11-10T18:41:48.859Z,95.83
2022-11-10T18:44:20.128Z,95.98
2022-11-10T18:46:51.328Z,95.75
2022-11-10T18:49:22.520Z,96.06
2022-11-10T18:51:53.732Z,95.72
2022-11-10T18:54:25.715Z,95.68
2022-11-10T18:56:57.221Z,95.91
2022-11-10T18:59:28.492Z,95.56
2022-11-10T19:01:59.825Z,95.62
2022-11-10T19:04:31.164Z,95.32
2022-11-10T19:07:02.703Z,95.52
2022-11-10T19:09:34.095Z,95.43
2022-11-10T19:12:05.510Z,95.40
2022-11-10T19:14:36.760Z,95.33
2022-11-10T19:17:08.103Z,95.29
2022-11-10T19:19:39.314Z,95.34
2022-11-10T19:22:10.531Z,95.71
2022-11-10T19:25:00.775Z,95.42
2022-11-10T19:27:32.999Z,95.45
2022-11-10T19:30:04.493Z,95.67
2022-11-10T19:32:38.568Z,95.68
2022-11-10T19:35:10.964Z,95.20
2022-11-10T19:37:42.341Z,95.50
2022-11-10T19:40:13.617Z,95.34
2022-11-10T19:42:44.882Z,95.54
2022-11-10T19:45:16.599Z,95.32
2022-11-10T19:47:48.023Z,94.73
2022-11-10T19:50:19.408Z,95.09
2022-11-10T19:52:50.664Z,95.08
2022-11-10T19:55:21.904Z,95.14
2022-11-10T19:57:53.228Z,94.84
2022-11-10T20:00:24.780Z,94.98
2022-11-10T20:02:56.006Z,94.81
2022-11-10T20:05:27.251Z,94.86
2022-11-10T20:08:10.724Z,94.88
2022-11-10T20:10:43.469Z,95.03
2022-11-10T20:13:14.683Z,94.80
2022-11-10T20:15:46.967Z,94.86
2022-11-10T20:18:19.972Z,95.03
2022-11-10T20:20:51.186Z,95.15
2022-11-10T20:23:22.790Z,94.90
2022-11-10T20:26:08.086Z,95.04
2022-11-10T20:28:40.224Z,95.22
2022-11-10T20:31:13.864Z,94.70
2022-11-10T20:33:45.388Z,94.84
2022-11-10T20:36:21.945Z,94.75
2022-11-10T20:38:54.346Z,94.72
2022-11-10T20:41:27.233Z,94.66
2022-11-10T20:43:58.661Z,94.24
2022-11-10T20:49:21.221Z,94.69
2022-11-10T20:51:52.649Z,94.48
2022-11-10T20:54:23.946Z,94.45
2022-11-10T20:56:55.231Z,94.71
2022-11-10T20:59:26.457Z,94.20
2022-11-10T21:01:57.798Z,94.01
2022-11-10T21:04:29.152Z,94.30
2022-11-10T21:07:00.495Z,94.05
2022-11-10T21:09:31.841Z,93.89
2022-11-10T21:12:21.907Z,94.12
2022-11-10T21:14:53.103Z,93.78
2022-11-10T21:17:25.305Z,93.71
2022-11-10T21:19:56.521Z,94.00
2022-11-10T21:22:27.737Z,93.97
2022-11-10T21:24:58.941Z,94.22
2022-11-10T21:27:30.227Z,94.98
2022-11-10T21:30:01.844Z,94.62
2022-11-10T21:32:33.161Z,94.98
2022-11-10T21:35:04.583Z,94.61
2022-11-10T21:37:35.859Z,94.75
2022-11-10T21:40:07.344Z,94.45
2022-11-10T21:42:38.680Z,94.30
2022-11-10T21:45:10.341Z,94.16
2022-11-10T21:47:41.577Z,93.52
2022-11-10T21:50:12.919Z,93.56
2022-11-10T21:52:44.452Z,93.51
2022-11-10T21:55:15.670Z,93.21
2022-11-10T21:57:46.905Z,93.19
2022-11-10T22:00:18.203Z,93.12
2022-11-10T22:02:49.685Z,92.88
2022-11-10T22:05:20.905Z,92.86
2022-11-10T22:07:52.190Z,92.87
2022-11-10T22:10:41.811Z,93.47
2022-11-10T22:13:35.278Z,93.15
2022-11-10T22:16:40.564Z,93.18
2022-11-10T22:19:11.976Z,93.35
2022-11-10T22:21:44.152Z,93.76
2022-11-10T22:24:26.388Z,93.87
2022-11-10T22:26:58.683Z,94.55
2022-11-10T22:29:32.070Z,94.77
2022-11-10T22:32:03.583Z,95.03
2022-11-10T22:34:34.793Z,95.26
2022-11-10T22:37:06.008Z,95.33
2022-11-10T22:39:55.932Z,95.60
2022-11-10T22:42:45.904Z,95.61
2022-11-10T22:45:17.108Z,95.79
2022-11-10T22:48:07.164Z,95.83
2022-11-10T22:50:38.420Z,95.77
2022-11-10T22:53:09.738Z,96.13
2022-11-10T22:55:41.204Z,96.22
2022-11-10T22:58:12.435Z,96.11
2022-11-10T23:00:44.052Z,95.96
2022-11-10T23:03:15.270Z,96.21
2022-11-10T23:05:54.930Z,96.22
2022-11-10T23:08:28.007Z,96.18
2022-11-10T23:11:00.654Z,96.02
2022-11-10T23:13:35.415Z,96.07
2022-11-10T23:16:17.264Z,96.24
2022-11-10T23:18:49.644Z,96.24
2022-11-10T23:21:22.508Z,95.89
2022-11-10T23:23:54.267Z,96.29
2022-11-10T23:26:26.850Z,96.29
2022-11-10T23:28:58.081Z,95.98
2022-11-10T23:31:29.361Z,96.16
2022-11-10T23:34:00.572Z,96.09
2022-11-10T23:36:31.794Z,95.89
2022-11-10T23:39:03.049Z,95.95
2022-11-10T23:41:34.344Z,95.82
2022-11-10T23:44:05.534Z,96.01
2022-11-10T23:46:37.531Z,96.02
2022-11-10T23:49:08.723Z,96.05
2022-11-10T23:51:39.957Z,96.01
2022-11-10T23:54:11.184Z,95.89
2022-11-10T23:56:42.383Z,95.79
2022-11-10T23:59:13.571Z,95.84
